Terminal Aerodrome Forecast
Issued by NWS

Home | Current Version | Previous Version | Text Only | Print | Product List | Glossary On
Versions: 1 2 3 4 5 6 7 8 9 10 11 12 13 14 15 16 17 18
000
FTUS46 KSGX 231200 CCA
TAFCRQ
TAF COR
KCRQ 231216Z 2312/2412 VRB03KT P6SM OVC008
      TEMPO 2312/2314 SCT008
     FM231630 VRB05KT P6SM FEW013
     FM232000 25008KT P6SM SKC
     FM240000 VRB04KT P6SM FEW013
     FM240500 VRB03KT P6SM OVC011=

USA.gov is the U.S. government's official web portal to all federal, state and local government web resources and services.